Portada
METAR-TAF:

METAR-TAF

Aeropuertos :

Aeropuerto Internacional de Yap

Yap, Micronesia

latitud: 09-29N, longitud: 138-05E, altitud: 28 m

Observación

El informe se hizo hace 1 hora y 22 minutos, a las 18:52 UTC
Viento 2 kt con dirección variable
Temperatura 26°C
Humedad 89%
Presión 1009 hPa
Visibilidad: 19.3 km
Escasas nubes a una altura de 1600 ft
Nubes dispersas a una altura de 13000 ft
Cielo nuboso a una altura de 30000 ft

METAR: PTYA 181852Z VRB02KT 12SM FEW016 SCT130 BKN300 26/24 A2981 RMK SLP095 T02570241

Hora: 06:14 (20:14 UTC)

Pronóstico

El informe se hizo hace 2 horas y 49 minutos, a las 17:25 UTC
Pronóstico válido del 18 a las 18 UTC al 19 a las 18 UTC
Viento 11 kt del este-noreste
Visibilidad: 10 km
Escasas nubes a una altura de 1700 ft

TAF: PTYA 181725Z 1818/1918 07011KT P6SM FEW017

Observaciones y pronósticos meteorológicos de más de 4000 aeropuertos (mensajes METAR y TAF).

Los puntos amarillos y rojos representan las estaciones disponibles.

Ponga el ratón en el punto deseado para ver el nombre de la estación.

Haga clic para ver las observaciones y los pronósticos meteorológicos.

Para cambiar el mapa : haga clic en los botones verdes con una cruz de color negro para hacer un zoom, en el botón verde con un guión para alejar o en las flechas verdes para mapas adyacentes.


METAR-TAF: